createdAt,value
2018-07-31T00:03:48.838Z,3.77
2018-07-31T00:07:53.199Z,3.87
2018-07-31T00:11:56.864Z,4.37
2018-07-31T00:16:00.552Z,4.63
2018-07-31T00:20:04.416Z,3.63
2018-07-31T00:24:08.151Z,4.40
2018-07-31T00:28:11.838Z,3.87
2018-07-31T00:32:15.529Z,4.60
2018-07-31T00:36:19.584Z,3.73
2018-07-31T00:40:23.334Z,3.73
2018-07-31T00:44:27.080Z,4.20
2018-07-31T00:48:30.813Z,4.40
2018-07-31T00:52:34.532Z,3.83
2018-07-31T00:56:38.257Z,4.63
2018-07-31T01:00:41.900Z,3.50
2018-07-31T01:04:45.576Z,4.30
2018-07-31T01:08:49.388Z,4.13
2018-07-31T01:12:53.051Z,4.37
2018-07-31T01:16:56.744Z,4.20
2018-07-31T01:21:02.876Z,4.03
2018-07-31T01:25:07.277Z,4.37
2018-07-31T01:29:10.940Z,4.40
2018-07-31T01:33:14.627Z,4.20
2018-07-31T01:37:18.281Z,4.20
2018-07-31T01:41:21.964Z,4.10
2018-07-31T01:45:25.677Z,4.20
2018-07-31T01:49:29.331Z,4.13
2018-07-31T01:53:33.037Z,4.20
2018-07-31T01:57:36.807Z,4.37
2018-07-31T02:01:40.589Z,4.67
2018-07-31T02:05:44.320Z,4.87
2018-07-31T02:09:48.017Z,4.37
2018-07-31T02:13:52.170Z,4.57
2018-07-31T02:17:55.859Z,4.63
2018-07-31T02:21:59.542Z,4.90
2018-07-31T02:26:03.192Z,4.70
2018-07-31T02:30:07.437Z,4.60
2018-07-31T02:34:11.083Z,4.40
2018-07-31T02:38:14.766Z,5.20
2018-07-31T02:42:18.429Z,5.50
2018-07-31T02:46:22.095Z,4.43
2018-07-31T02:50:25.751Z,5.47
2018-07-31T02:54:29.405Z,4.60
2018-07-31T02:58:33.069Z,5.10
2018-07-31T03:02:36.785Z,4.67
2018-07-31T03:06:40.447Z,4.47
2018-07-31T03:10:44.121Z,5.10
2018-07-31T03:14:47.779Z,4.80
2018-07-31T03:18:51.463Z,4.90
2018-07-31T03:23:01.624Z,4.73
2018-07-31T03:27:05.365Z,5.63
2018-07-31T03:31:09.046Z,5.10
2018-07-31T03:35:12.733Z,4.43
2018-07-31T03:39:16.401Z,5.27
2018-07-31T03:43:20.036Z,5.23
2018-07-31T03:47:23.780Z,6.27
2018-07-31T03:51:27.460Z,5.20
2018-07-31T03:55:31.152Z,5.60
2018-07-31T03:59:34.859Z,6.57
2018-07-31T04:03:38.515Z,5.90
2018-07-31T04:07:42.287Z,5.70
2018-07-31T04:11:45.942Z,4.90
2018-07-31T04:15:49.631Z,4.97
2018-07-31T04:19:53.303Z,5.13
2018-07-31T04:23:56.981Z,6.00
2018-07-31T04:28:00.639Z,5.27
2018-07-31T04:32:04.375Z,5.33
2018-07-31T04:36:08.048Z,5.23
2018-07-31T04:40:11.730Z,6.53
2018-07-31T04:44:15.454Z,6.50
2018-07-31T04:48:19.264Z,6.00
2018-07-31T04:52:22.931Z,5.47
2018-07-31T04:56:26.663Z,5.87
2018-07-31T05:00:30.357Z,5.90
2018-07-31T05:04:34.000Z,6.77
2018-07-31T05:08:37.680Z,7.50
2018-07-31T05:12:42.575Z,7.00
2018-07-31T05:16:46.288Z,6.63
2018-07-31T05:20:50.019Z,7.20
2018-07-31T05:24:53.777Z,6.53
2018-07-31T05:28:57.485Z,7.07
2018-07-31T05:33:01.188Z,7.37
2018-07-31T05:37:04.917Z,7.20
2018-07-31T05:41:08.597Z,6.87
2018-07-31T05:45:12.249Z,7.20
2018-07-31T05:49:15.936Z,6.77
2018-07-31T05:53:19.633Z,6.63
2018-07-31T05:57:23.377Z,7.43
2018-07-31T06:01:27.123Z,7.97
2018-07-31T06:05:30.801Z,7.33
2018-07-31T06:09:34.550Z,7.53
2018-07-31T06:13:38.201Z,8.73
2018-07-31T06:17:41.991Z,8.00
2018-07-31T06:21:45.679Z,8.43
2018-07-31T06:25:49.301Z,8.60
2018-07-31T06:29:52.971Z,9.87
2018-07-31T06:33:56.711Z,9.43
2018-07-31T06:38:00.403Z,10.23
2018-07-31T06:42:04.170Z,9.37
2018-07-31T06:46:07.807Z,9.33
2018-07-31T06:50:11.509Z,8.57
2018-07-31T06:54:15.205Z,8.47
2018-07-31T06:58:18.874Z,8.63
2018-07-31T07:02:22.529Z,7.77
2018-07-31T07:06:26.198Z,6.60
2018-07-31T07:10:29.881Z,6.07
2018-07-31T07:14:33.603Z,5.23
2018-07-31T07:18:37.319Z,5.20
2018-07-31T07:22:41.252Z,5.57
2018-07-31T07:26:44.878Z,4.83
2018-07-31T07:30:48.553Z,4.63
2018-07-31T07:34:52.228Z,4.10
2018-07-31T07:38:55.911Z,5.03
2018-07-31T07:42:59.605Z,5.23
2018-07-31T07:47:03.292Z,6.37
2018-07-31T07:51:06.936Z,5.47
2018-07-31T07:55:10.745Z,5.77
2018-07-31T07:59:14.428Z,5.37
2018-07-31T08:03:18.087Z,6.37
2018-07-31T08:07:21.749Z,6.60
2018-07-31T08:11:25.448Z,7.30
2018-07-31T08:15:29.139Z,6.83
2018-07-31T08:19:32.813Z,6.93
2018-07-31T08:23:36.538Z,6.57
2018-07-31T08:27:40.238Z,6.43
2018-07-31T08:31:43.993Z,6.00
2018-07-31T08:35:47.649Z,6.63
2018-07-31T08:39:51.357Z,6.33
2018-07-31T08:43:55.087Z,5.63
2018-07-31T08:47:58.789Z,6.90
2018-07-31T08:52:02.462Z,7.40
2018-07-31T08:56:06.154Z,7.10
2018-07-31T09:00:10.205Z,6.30
2018-07-31T09:04:13.869Z,7.00
2018-07-31T09:08:17.688Z,8.57
2018-07-31T09:12:21.334Z,7.70
2018-07-31T09:16:24.683Z,6.67
2018-07-31T09:20:28.416Z,7.87
2018-07-31T09:24:32.134Z,7.27
2018-07-31T09:28:35.761Z,6.23
2018-07-31T09:32:44.841Z,6.17
2018-07-31T09:36:48.576Z,5.83
2018-07-31T09:40:52.256Z,5.80
2018-07-31T09:44:55.912Z,5.93
2018-07-31T09:53:05.939Z,5.10
2018-07-31T09:57:09.636Z,4.17
2018-07-31T10:01:17.555Z,5.43
2018-07-31T10:05:21.284Z,4.07
2018-07-31T10:09:24.946Z,3.80
2018-07-31T10:13:28.639Z,4.00
2018-07-31T10:17:32.330Z,3.60
2018-07-31T10:21:36.058Z,3.80
2018-07-31T10:25:39.759Z,3.10
2018-07-31T10:29:43.411Z,4.10
2018-07-31T10:33:47.105Z,4.03
2018-07-31T10:37:50.870Z,3.67
2018-07-31T10:41:54.550Z,3.27
2018-07-31T10:45:58.216Z,3.70
2018-07-31T10:50:01.841Z,3.37
2018-07-31T10:54:05.605Z,3.07
2018-07-31T10:58:09.361Z,3.30
2018-07-31T11:02:12.973Z,3.30
2018-07-31T11:06:16.666Z,2.90
2018-07-31T11:10:20.425Z,2.87
2018-07-31T11:14:24.081Z,3.00
2018-07-31T11:18:27.786Z,3.10
2018-07-31T11:22:31.540Z,3.00
2018-07-31T11:26:35.208Z,3.37
2018-07-31T11:30:38.862Z,2.90
2018-07-31T11:34:42.544Z,2.70
2018-07-31T11:38:46.218Z,2.80
2018-07-31T11:42:49.946Z,2.90
2018-07-31T11:46:53.628Z,2.90
2018-07-31T11:50:57.273Z,2.70
2018-07-31T11:55:00.953Z,3.10
2018-07-31T11:59:04.642Z,2.80
2018-07-31T12:03:08.410Z,2.70
2018-07-31T12:07:12.117Z,2.30
2018-07-31T12:11:15.784Z,2.47
2018-07-31T12:15:19.458Z,2.47
2018-07-31T12:19:23.121Z,2.70
2018-07-31T12:23:26.847Z,2.47
2018-07-31T12:27:30.605Z,2.80
2018-07-31T12:31:34.300Z,3.03
2018-07-31T12:35:37.997Z,2.50
2018-07-31T12:39:41.688Z,2.93
2018-07-31T12:43:45.402Z,2.30
2018-07-31T12:47:49.108Z,2.33
2018-07-31T12:51:52.748Z,2.27
2018-07-31T12:55:56.493Z,2.80
2018-07-31T13:00:00.256Z,1.97
2018-07-31T13:04:04.093Z,2.00
2018-07-31T13:08:07.749Z,2.27
2018-07-31T13:12:11.424Z,1.80
2018-07-31T13:16:15.120Z,2.20
2018-07-31T13:20:18.908Z,2.00
2018-07-31T13:24:22.579Z,2.03
2018-07-31T13:28:26.240Z,1.83
2018-07-31T13:32:29.920Z,2.00
2018-07-31T13:36:33.629Z,2.20
2018-07-31T13:40:37.316Z,2.20
2018-07-31T13:44:41.050Z,2.43
2018-07-31T13:48:44.693Z,2.23
2018-07-31T13:52:48.384Z,2.20
2018-07-31T13:56:52.059Z,1.73
2018-07-31T14:00:55.745Z,2.10
2018-07-31T14:04:59.413Z,2.10
2018-07-31T14:09:03.246Z,2.07
2018-07-31T14:13:06.940Z,2.23
2018-07-31T14:17:10.628Z,2.30
2018-07-31T14:21:14.364Z,2.17
2018-07-31T14:25:18.069Z,2.00
2018-07-31T14:29:21.718Z,2.60
2018-07-31T14:33:25.379Z,1.50
2018-07-31T14:37:29.096Z,1.40
2018-07-31T14:41:32.781Z,1.70
2018-07-31T14:45:36.136Z,1.57
2018-07-31T14:49:39.761Z,1.67
2018-07-31T14:53:43.444Z,1.97
2018-07-31T14:57:47.185Z,1.60
2018-07-31T15:01:50.864Z,2.20
2018-07-31T15:05:54.825Z,1.60
2018-07-31T15:09:58.643Z,1.87
2018-07-31T15:14:02.384Z,1.93
2018-07-31T15:18:06.219Z,1.50
2018-07-31T15:22:09.936Z,2.07
2018-07-31T15:26:13.622Z,1.70
2018-07-31T15:30:17.256Z,2.17
2018-07-31T15:34:20.908Z,2.17
2018-07-31T15:38:24.735Z,2.00
2018-07-31T15:42:28.539Z,2.00
2018-07-31T15:46:32.224Z,1.97
2018-07-31T15:50:35.892Z,2.37
2018-07-31T15:54:39.556Z,2.00
2018-07-31T15:58:43.253Z,2.00
2018-07-31T16:02:46.932Z,2.30
2018-07-31T16:06:50.632Z,2.00
2018-07-31T16:10:54.387Z,2.10
2018-07-31T16:14:58.099Z,1.87
2018-07-31T16:19:01.773Z,2.07
2018-07-31T16:23:05.617Z,1.73
2018-07-31T16:27:09.172Z,1.93
2018-07-31T16:31:12.850Z,1.83
2018-07-31T16:35:16.563Z,1.70
2018-07-31T16:39:20.250Z,2.00
2018-07-31T16:43:23.932Z,2.23
2018-07-31T16:47:27.763Z,1.67
2018-07-31T16:51:31.495Z,2.00
2018-07-31T16:55:35.153Z,2.27
2018-07-31T16:59:38.871Z,2.17
2018-07-31T17:03:42.579Z,2.73
2018-07-31T17:07:46.318Z,2.07
2018-07-31T17:11:50.089Z,2.30
2018-07-31T17:15:53.717Z,1.87
2018-07-31T17:19:57.405Z,2.43
2018-07-31T17:24:01.100Z,2.30
2018-07-31T17:28:07.867Z,2.03
2018-07-31T17:32:11.553Z,2.00
2018-07-31T17:36:15.190Z,2.00
2018-07-31T17:40:18.855Z,1.60
2018-07-31T17:44:22.671Z,2.10
2018-07-31T17:48:26.416Z,2.43
2018-07-31T17:52:30.111Z,2.10
2018-07-31T17:56:33.813Z,2.23
2018-07-31T18:00:37.540Z,2.10
2018-07-31T18:04:41.208Z,2.47
2018-07-31T18:08:44.909Z,1.97
2018-07-31T18:12:48.586Z,2.10
2018-07-31T18:16:52.237Z,2.27
2018-07-31T18:20:55.945Z,2.37
2018-07-31T18:24:59.626Z,2.37
2018-07-31T18:29:03.322Z,2.33
2018-07-31T18:33:07.015Z,2.40
2018-07-31T18:37:10.639Z,2.47
2018-07-31T18:41:14.519Z,2.43
2018-07-31T18:45:18.143Z,2.30
2018-07-31T18:49:21.805Z,2.40
2018-07-31T18:53:25.527Z,3.17
2018-07-31T18:57:29.164Z,2.30
2018-07-31T19:01:32.884Z,2.73
2018-07-31T19:05:36.586Z,2.50
2018-07-31T19:09:40.266Z,2.03
2018-07-31T19:13:43.953Z,2.83
2018-07-31T19:17:47.580Z,2.33
2018-07-31T19:21:51.317Z,2.50
2018-07-31T19:26:28.546Z,2.77
2018-07-31T19:30:32.202Z,2.40
2018-07-31T19:34:35.865Z,2.30
2018-07-31T19:38:39.653Z,2.47
2018-07-31T19:42:43.324Z,2.47
2018-07-31T19:46:47.045Z,2.00
2018-07-31T19:50:50.739Z,2.60
2018-07-31T19:54:54.527Z,2.50
2018-07-31T19:58:58.208Z,2.53
2018-07-31T20:03:01.845Z,2.00
2018-07-31T20:07:05.757Z,2.23
2018-07-31T20:11:09.617Z,2.47
2018-07-31T20:15:13.332Z,2.40
2018-07-31T20:19:16.999Z,2.30
2018-07-31T20:23:20.681Z,2.47
2018-07-31T20:27:24.460Z,2.50
2018-07-31T20:31:28.144Z,2.50
2018-07-31T20:35:31.812Z,2.27
2018-07-31T20:39:35.451Z,2.10
2018-07-31T20:43:39.069Z,2.20
2018-07-31T20:47:42.769Z,2.60
2018-07-31T20:51:46.456Z,2.80
2018-07-31T20:55:50.164Z,1.80
2018-07-31T20:59:53.833Z,2.00
2018-07-31T21:03:57.525Z,1.90
2018-07-31T21:08:01.208Z,1.33
2018-07-31T21:12:04.884Z,2.13
2018-07-31T21:16:08.655Z,1.80
2018-07-31T21:20:12.358Z,1.70
2018-07-31T21:24:16.053Z,1.50
2018-07-31T21:28:19.731Z,1.70
2018-07-31T21:32:23.426Z,1.43
2018-07-31T21:36:27.115Z,1.33
2018-07-31T21:40:30.779Z,1.53
2018-07-31T21:44:34.401Z,1.40
2018-07-31T21:48:38.069Z,1.37
2018-07-31T21:52:41.792Z,1.67
2018-07-31T21:56:45.430Z,1.17
2018-07-31T22:00:54.470Z,1.53
2018-07-31T22:04:58.107Z,1.60
2018-07-31T22:09:01.758Z,1.53
2018-07-31T22:13:05.436Z,1.50
2018-07-31T22:17:09.443Z,1.73
2018-07-31T22:21:13.224Z,1.60
2018-07-31T22:25:17.027Z,1.80
2018-07-31T22:29:20.628Z,1.60
2018-07-31T22:33:24.293Z,2.10
2018-07-31T22:37:27.945Z,2.17
2018-07-31T22:41:31.611Z,1.80
2018-07-31T22:45:35.257Z,2.03
2018-07-31T22:49:38.885Z,2.17
2018-07-31T22:53:42.538Z,2.27
2018-07-31T22:57:46.397Z,2.37
2018-07-31T23:01:50.041Z,2.23
2018-07-31T23:05:53.798Z,2.30
2018-07-31T23:10:02.589Z,5.60
2018-07-31T23:14:06.431Z,3.67
2018-07-31T23:18:10.104Z,2.83
2018-07-31T23:22:15.312Z,3.63
2018-07-31T23:26:18.986Z,3.07
2018-07-31T23:30:22.617Z,2.80
2018-07-31T23:34:26.296Z,3.50
2018-07-31T23:38:29.979Z,3.10
2018-07-31T23:42:33.719Z,3.67
2018-07-31T23:46:37.891Z,3.20
2018-07-31T23:50:41.606Z,3.33
2018-07-31T23:54:45.322Z,2.87
2018-07-31T23:58:49.020Z,2.93
